Terminal Aerodrome Forecast
Issued by NWS

Current Version | Previous Version | Graphics & Text | Print | Product List | Glossary On
Versions: 1 2 3 4 5 6 7 8 9 10 11 12 13 14 15 16 17
757
FTUS41 KILN 230903 AAA
TAFLUK
TAF AMD
KLUK 230903Z 2309/2406 01004KT 3SM BR SCT015
      TEMPO 2309/2312 1SM BR BKN015
     FM231300 02005KT P6SM SCT025
     FM231500 03007KT P6SM SCT040
     FM232300 04003KT P6SM SKC=

USA.gov is the U.S. government's official web portal to all federal, state and local government web resources and services.